createdAt,value
2018-05-25T00:01:30.331Z,5.70
2018-05-25T00:03:31.742Z,5.77
2018-05-25T00:05:33.178Z,4.93
2018-05-25T00:07:34.577Z,5.00
2018-05-25T00:09:35.977Z,5.10
2018-05-25T00:11:37.388Z,4.90
2018-05-25T00:13:38.425Z,4.80
2018-05-25T00:15:39.802Z,4.70
2018-05-25T00:17:41.210Z,5.03
2018-05-25T00:19:42.249Z,4.90
2018-05-25T00:21:43.322Z,5.43
2018-05-25T00:23:44.732Z,5.17
2018-05-25T00:25:45.769Z,5.03
2018-05-25T00:27:46.835Z,5.53
2018-05-25T00:29:48.240Z,5.57
2018-05-25T00:31:49.291Z,4.77
2018-05-25T00:33:50.343Z,5.20
2018-05-25T00:35:51.758Z,4.83
2018-05-25T00:37:52.785Z,5.20
2018-05-25T00:39:53.833Z,5.27
2018-05-25T00:41:54.865Z,5.20
2018-05-25T00:43:55.906Z,5.00
2018-05-25T00:45:56.956Z,5.50
2018-05-25T00:47:58.002Z,5.00
2018-05-25T00:49:59.401Z,4.80
2018-05-25T00:52:00.642Z,4.70
2018-05-25T00:54:01.673Z,5.70
2018-05-25T00:56:02.707Z,5.80
2018-05-25T00:58:03.773Z,4.83
2018-05-25T01:00:04.801Z,5.17
2018-05-25T01:02:05.834Z,4.77
2018-05-25T01:04:06.886Z,4.97
2018-05-25T01:06:07.873Z,4.87
2018-05-25T01:08:08.816Z,5.40
2018-05-25T01:10:09.785Z,4.87
2018-05-25T01:12:10.730Z,4.70
2018-05-25T01:14:11.689Z,5.30
2018-05-25T01:16:13.018Z,5.03
2018-05-25T01:18:14.363Z,5.20
2018-05-25T01:20:15.707Z,5.17
2018-05-25T01:22:17.130Z,5.80
2018-05-25T01:24:18.078Z,5.50
2018-05-25T01:26:19.030Z,5.07
2018-05-25T01:28:20.383Z,5.50
2018-05-25T01:30:21.330Z,5.63
2018-05-25T01:32:22.285Z,5.03
2018-05-25T01:34:23.545Z,5.30
2018-05-25T01:36:24.493Z,4.90
2018-05-25T01:38:25.449Z,5.60
2018-05-25T01:40:26.780Z,5.43
2018-05-25T01:42:28.109Z,4.93
2018-05-25T01:44:29.086Z,4.93
2018-05-25T01:46:30.030Z,5.80
2018-05-25T01:48:31.002Z,5.50
2018-05-25T01:50:31.971Z,5.30
2018-05-25T01:52:33.278Z,5.73
2018-05-25T01:54:34.225Z,5.00
2018-05-25T01:56:35.486Z,5.70
2018-05-25T01:58:36.797Z,6.10
2018-05-25T02:00:37.738Z,5.47
2018-05-25T02:02:38.702Z,6.00
2018-05-25T02:04:40.023Z,5.73
2018-05-25T02:06:40.959Z,7.30
2018-05-25T02:08:41.913Z,7.80
2018-05-25T02:10:43.234Z,6.67
2018-05-25T02:12:44.228Z,5.53
2018-05-25T02:14:45.178Z,6.47
2018-05-25T02:16:46.121Z,5.23
2018-05-25T02:18:47.077Z,5.00
2018-05-25T02:20:48.050Z,6.40
2018-05-25T02:22:48.995Z,5.70
2018-05-25T02:24:49.935Z,5.60
2018-05-25T02:26:50.902Z,5.10
2018-05-25T02:28:51.864Z,5.87
2018-05-25T02:30:53.186Z,5.10
2018-05-25T02:32:54.143Z,5.70
2018-05-25T02:34:55.472Z,5.53
2018-05-25T02:36:56.795Z,5.90
2018-05-25T02:38:57.929Z,5.87
2018-05-25T02:40:58.890Z,5.30
2018-05-25T02:43:00.217Z,5.70
2018-05-25T02:45:01.195Z,5.00
2018-05-25T02:47:02.137Z,4.90
2018-05-25T02:49:03.078Z,5.63
2018-05-25T02:51:04.051Z,4.53
2018-05-25T02:53:04.989Z,5.43
2018-05-25T02:55:06.314Z,5.73
2018-05-25T02:57:07.287Z,5.60
2018-05-25T02:59:08.754Z,5.13
2018-05-25T03:01:10.070Z,5.37
2018-05-25T03:03:11.385Z,5.23
2018-05-25T03:05:12.341Z,5.53
2018-05-25T03:07:13.284Z,5.20
2018-05-25T03:09:14.622Z,5.50
2018-05-25T03:11:15.728Z,5.53
2018-05-25T03:13:16.676Z,5.13
2018-05-25T03:15:17.640Z,5.40
2018-05-25T03:17:18.975Z,5.27
2018-05-25T03:19:20.425Z,5.40
2018-05-25T03:21:21.857Z,5.50
2018-05-25T03:23:22.802Z,6.40
2018-05-25T03:25:24.132Z,6.03
2018-05-25T03:27:25.084Z,5.40
2018-05-25T03:29:26.413Z,5.70
2018-05-25T03:31:27.749Z,5.60
2018-05-25T03:33:28.682Z,5.67
2018-05-25T03:35:29.650Z,5.67
2018-05-25T03:37:30.613Z,5.23
2018-05-25T03:39:31.557Z,5.50
2018-05-25T03:41:32.686Z,5.50
2018-05-25T03:43:33.623Z,5.97
2018-05-25T03:45:34.593Z,4.90
2018-05-25T03:47:35.719Z,5.90
2018-05-25T03:49:37.053Z,5.70
2018-05-25T03:51:38.042Z,5.73
2018-05-25T03:53:39.014Z,5.80
2018-05-25T03:55:39.955Z,5.70
2018-05-25T03:57:40.904Z,5.50
2018-05-25T03:59:54.146Z,8.20
2018-05-25T04:01:56.429Z,6.70
2018-05-25T04:03:59.018Z,7.00
2018-05-25T04:06:00.125Z,7.07
2018-05-25T04:08:01.444Z,7.70
2018-05-25T04:10:02.398Z,6.50
2018-05-25T04:12:03.727Z,5.80
2018-05-25T04:14:04.670Z,6.30
2018-05-25T04:16:06.005Z,5.60
2018-05-25T04:18:06.942Z,6.20
2018-05-25T04:20:07.893Z,5.60
2018-05-25T04:22:09.225Z,5.80
2018-05-25T04:24:10.550Z,5.47
2018-05-25T04:26:11.486Z,6.10
2018-05-25T04:28:12.464Z,5.83
2018-05-25T04:30:13.427Z,5.77
2018-05-25T04:32:14.400Z,5.73
2018-05-25T04:34:15.350Z,6.00
2018-05-25T04:36:16.758Z,18.10
2018-05-25T04:38:17.695Z,9.43
2018-05-25T04:40:18.656Z,6.40
2018-05-25T04:42:19.982Z,7.50
2018-05-25T04:44:20.917Z,5.50
2018-05-25T04:46:21.908Z,6.27
2018-05-25T04:48:23.182Z,6.10
2018-05-25T04:50:24.604Z,7.27
2018-05-25T04:52:25.705Z,5.60
2018-05-25T04:54:26.815Z,6.23
2018-05-25T04:56:27.882Z,6.30
2018-05-25T04:58:28.866Z,5.43
2018-05-25T05:00:29.860Z,7.00
2018-05-25T05:02:30.850Z,6.07
2018-05-25T05:04:31.820Z,5.90
2018-05-25T05:06:32.896Z,6.23
2018-05-25T05:08:33.974Z,5.70
2018-05-25T05:10:35.391Z,5.70
2018-05-25T05:12:36.414Z,5.97
2018-05-25T05:14:37.839Z,6.30
2018-05-25T05:16:38.931Z,6.10
2018-05-25T05:18:39.987Z,6.47
2018-05-25T05:20:41.406Z,6.03
2018-05-25T05:22:42.416Z,5.90
2018-05-25T05:24:43.407Z,5.80
2018-05-25T05:26:45.045Z,6.30
2018-05-25T05:28:46.370Z,5.93
2018-05-25T05:30:47.330Z,6.20
2018-05-25T05:32:48.677Z,6.13
2018-05-25T05:34:50.018Z,5.90
2018-05-25T05:36:51.338Z,5.80
2018-05-25T05:38:52.297Z,6.00
2018-05-25T05:40:53.426Z,6.90
2018-05-25T05:42:54.750Z,5.73
2018-05-25T05:44:55.750Z,5.57
2018-05-25T05:46:56.891Z,6.80
2018-05-25T05:48:58.204Z,6.03
2018-05-25T05:50:59.270Z,5.70
2018-05-25T05:53:00.507Z,6.13
2018-05-25T05:55:02.431Z,6.60
2018-05-25T05:57:04.140Z,6.17
2018-05-25T05:59:05.242Z,6.10
2018-05-25T06:01:06.222Z,5.77
2018-05-25T06:03:07.161Z,6.10
2018-05-25T06:05:08.613Z,6.07
2018-05-25T06:07:09.779Z,6.37
2018-05-25T06:09:10.887Z,5.90
2018-05-25T06:11:11.830Z,6.03
2018-05-25T06:13:13.209Z,7.00
2018-05-25T06:15:14.109Z,6.60
2018-05-25T06:17:15.438Z,6.70
2018-05-25T06:19:16.433Z,5.67
2018-05-25T06:21:17.381Z,6.50
2018-05-25T06:23:18.354Z,6.20
2018-05-25T06:25:19.769Z,6.43
2018-05-25T06:27:20.661Z,6.07
2018-05-25T06:29:21.611Z,6.00
2018-05-25T06:31:22.574Z,5.90
2018-05-25T06:33:23.518Z,6.07
2018-05-25T06:35:24.463Z,5.60
2018-05-25T06:37:25.781Z,6.60
2018-05-25T06:39:26.730Z,8.00
2018-05-25T06:41:27.778Z,7.23
2018-05-25T06:43:29.110Z,8.20
2018-05-25T06:45:30.053Z,6.33
2018-05-25T06:47:32.353Z,6.07
2018-05-25T06:49:34.162Z,6.17
2018-05-25T06:51:35.118Z,6.10
2018-05-25T06:53:36.432Z,6.30
2018-05-25T06:55:37.394Z,5.77
2018-05-25T06:57:38.710Z,6.10
2018-05-25T06:59:39.658Z,5.90
2018-05-25T07:01:41.300Z,6.07
2018-05-25T07:03:42.275Z,6.70
2018-05-25T07:05:43.262Z,8.43
2018-05-25T07:07:44.362Z,7.10
2018-05-25T07:09:45.334Z,6.27
2018-05-25T07:11:46.280Z,6.47
2018-05-25T07:13:47.213Z,6.30
2018-05-25T07:15:49.538Z,6.17
2018-05-25T07:20:04.964Z,5.87
2018-05-25T07:22:06.102Z,5.87
2018-05-25T07:24:07.096Z,6.30
2018-05-25T07:26:08.178Z,5.70
2018-05-25T07:28:09.142Z,10.63
2018-05-25T07:30:10.086Z,6.57
2018-05-25T07:32:11.034Z,7.90
2018-05-25T07:34:12.098Z,6.53
2018-05-25T07:36:13.049Z,5.70
2018-05-25T07:38:13.986Z,7.07
2018-05-25T07:40:15.311Z,13.37
2018-05-25T07:42:16.254Z,6.73
2018-05-25T07:44:17.194Z,6.10
2018-05-25T07:46:18.150Z,6.33
2018-05-25T07:48:19.475Z,6.27
2018-05-25T07:50:20.805Z,6.87
2018-05-25T07:52:21.786Z,5.60
2018-05-25T07:54:22.762Z,8.30
2018-05-25T07:56:23.681Z,7.83
2018-05-25T07:58:24.705Z,6.47
2018-05-25T08:00:25.645Z,5.77
2018-05-25T08:02:26.595Z,5.90
2018-05-25T08:04:27.552Z,6.27
2018-05-25T08:06:28.548Z,6.40
2018-05-25T08:08:29.461Z,5.77
2018-05-25T08:10:30.417Z,5.90
2018-05-25T08:12:31.395Z,6.20
2018-05-25T08:14:32.707Z,7.37
2018-05-25T08:16:33.651Z,7.10
2018-05-25T08:18:34.793Z,5.47
2018-05-25T08:20:35.748Z,6.30
2018-05-25T08:22:37.062Z,6.50
2018-05-25T08:24:38.049Z,5.80
2018-05-25T08:26:38.993Z,6.60
2018-05-25T08:28:40.050Z,6.90
2018-05-25T08:30:41.098Z,6.17
2018-05-25T08:32:42.050Z,5.70
2018-05-25T08:34:43.090Z,5.83
2018-05-25T08:36:44.055Z,6.00
2018-05-25T08:38:44.994Z,7.57
2018-05-25T08:40:45.949Z,6.30
2018-05-25T08:42:46.911Z,5.60
2018-05-25T08:44:48.408Z,5.90
2018-05-25T08:46:49.353Z,6.13
2018-05-25T08:48:50.348Z,5.70
2018-05-25T08:50:51.662Z,5.60
2018-05-25T08:52:52.620Z,6.27
2018-05-25T08:54:53.595Z,6.17
2018-05-25T08:56:54.600Z,5.80
2018-05-25T08:58:55.941Z,7.20
2018-05-25T09:00:57.261Z,6.20
2018-05-25T09:02:58.925Z,6.30
2018-05-25T09:04:59.858Z,6.57
2018-05-25T09:07:00.822Z,8.17
2018-05-25T09:09:01.802Z,6.30
2018-05-25T09:11:02.747Z,6.03
2018-05-25T09:13:03.710Z,5.80
2018-05-25T09:15:05.194Z,5.87
2018-05-25T09:17:06.310Z,9.93
2018-05-25T09:19:07.265Z,6.53
2018-05-25T09:21:08.271Z,5.57
2018-05-25T09:23:09.582Z,5.97
2018-05-25T09:25:10.525Z,6.10
2018-05-25T09:27:11.477Z,5.77
2018-05-25T09:29:12.810Z,5.27
2018-05-25T09:31:14.143Z,5.53
2018-05-25T09:35:22.942Z,5.87
2018-05-25T09:37:23.886Z,5.40
2018-05-25T09:39:24.848Z,5.70
2018-05-25T09:41:25.915Z,5.70
2018-05-25T09:43:27.386Z,5.57
2018-05-25T09:45:28.329Z,5.83
2018-05-25T09:49:37.420Z,5.10
2018-05-25T09:51:38.770Z,5.40
2018-05-25T09:53:39.723Z,6.10
2018-05-25T09:55:40.667Z,5.77
2018-05-25T09:57:52.667Z,5.57
2018-05-25T09:59:54.238Z,5.03
2018-05-25T10:01:55.210Z,5.17
2018-05-25T10:03:56.558Z,5.03
2018-05-25T10:05:57.543Z,8.30
2018-05-25T10:07:58.519Z,6.33
2018-05-25T10:09:59.878Z,5.17
2018-05-25T10:12:00.871Z,5.50
2018-05-25T10:14:01.850Z,5.07
2018-05-25T10:16:02.826Z,5.40
2018-05-25T10:18:03.864Z,5.20
2018-05-25T10:20:04.854Z,5.20
2018-05-25T10:22:05.872Z,5.00
2018-05-25T10:24:07.317Z,5.43
2018-05-25T10:26:08.680Z,5.20
2018-05-25T10:28:09.645Z,5.20
2018-05-25T10:30:10.702Z,4.70
2018-05-25T10:32:11.668Z,4.53
2018-05-25T10:34:12.990Z,5.17
2018-05-25T10:36:13.939Z,4.97
2018-05-25T10:38:15.262Z,5.00
2018-05-25T10:40:16.226Z,4.97
2018-05-25T10:42:17.562Z,4.93
2018-05-25T10:44:19.465Z,4.40
2018-05-25T10:46:20.410Z,5.20
2018-05-25T10:48:21.376Z,5.37
2018-05-25T10:50:22.698Z,4.87
2018-05-25T10:52:24.160Z,5.23
2018-05-25T10:54:25.110Z,5.57
2018-05-25T10:56:26.425Z,4.67
2018-05-25T10:58:27.378Z,4.37
2018-05-25T11:00:28.370Z,4.60
2018-05-25T11:02:30.173Z,4.63
2018-05-25T11:04:31.497Z,4.90
2018-05-25T11:06:32.486Z,5.10
2018-05-25T11:08:33.748Z,4.27
2018-05-25T11:10:34.770Z,4.77
2018-05-25T11:12:35.727Z,4.60
2018-05-25T11:14:36.700Z,4.60
2018-05-25T11:16:38.026Z,4.83
2018-05-25T11:18:38.953Z,4.37
2018-05-25T11:20:39.922Z,4.63
2018-05-25T11:22:41.537Z,4.50
2018-05-25T11:24:42.474Z,4.33
2018-05-25T11:26:43.690Z,4.60
2018-05-25T11:28:45.398Z,6.27
2018-05-25T11:30:46.515Z,4.57
2018-05-25T11:32:47.833Z,4.30
2018-05-25T11:34:48.778Z,4.67
2018-05-25T11:36:49.734Z,4.80
2018-05-25T11:38:51.045Z,4.97
2018-05-25T11:40:51.990Z,5.00
2018-05-25T11:42:53.377Z,5.13
2018-05-25T11:44:54.349Z,4.60
2018-05-25T11:46:55.324Z,4.40
2018-05-25T11:48:56.675Z,4.50
2018-05-25T11:50:57.649Z,4.17
2018-05-25T11:52:58.686Z,4.90
2018-05-25T11:55:00.873Z,4.40
2018-05-25T11:57:02.131Z,4.40
2018-05-25T11:59:03.123Z,4.50
2018-05-25T12:01:04.107Z,4.93
2018-05-25T12:03:05.445Z,5.23
2018-05-25T12:05:06.794Z,4.70
2018-05-25T12:07:08.950Z,4.60
2018-05-25T12:09:10.295Z,4.77
2018-05-25T12:11:11.643Z,4.70
2018-05-25T12:13:14.939Z,5.00
2018-05-25T12:15:16.285Z,4.60
2018-05-25T12:17:17.594Z,4.10
2018-05-25T12:19:18.715Z,4.80
2018-05-25T12:21:20.015Z,4.30
2018-05-25T12:23:20.958Z,4.80
2018-05-25T12:25:22.085Z,4.07
2018-05-25T12:27:23.422Z,5.07
2018-05-25T12:29:26.569Z,4.30
2018-05-25T12:31:27.529Z,4.70
2018-05-25T12:33:29.242Z,4.73
2018-05-25T12:35:30.195Z,4.67
2018-05-25T12:37:31.146Z,4.63
2018-05-25T12:39:32.462Z,5.40
2018-05-25T12:41:33.422Z,10.47
2018-05-25T12:43:34.369Z,4.27
2018-05-25T12:45:35.690Z,4.70
2018-05-25T12:47:36.782Z,4.50
2018-05-25T12:49:37.739Z,9.30
2018-05-25T12:51:38.690Z,6.00
2018-05-25T12:53:39.690Z,4.33
2018-05-25T12:55:40.644Z,4.40
2018-05-25T12:57:41.602Z,4.70
2018-05-25T12:59:42.587Z,4.90
2018-05-25T13:01:43.554Z,5.00
2018-05-25T13:03:44.494Z,4.30
2018-05-25T13:05:45.446Z,4.50
2018-05-25T13:07:46.420Z,4.57
2018-05-25T13:09:47.378Z,4.33
2018-05-25T13:11:48.339Z,4.37
2018-05-25T13:13:49.324Z,4.50
2018-05-25T13:15:50.833Z,5.07
2018-05-25T13:17:52.155Z,4.40
2018-05-25T13:19:53.140Z,4.13
2018-05-25T13:21:54.110Z,4.07
2018-05-25T13:23:55.058Z,4.23
2018-05-25T13:25:56.164Z,4.00
2018-05-25T13:27:57.105Z,4.20
2018-05-25T13:29:58.075Z,6.40
2018-05-25T13:31:59.018Z,7.23
2018-05-25T13:34:00.370Z,4.20
2018-05-25T13:36:01.705Z,4.30
2018-05-25T13:38:03.030Z,6.00
2018-05-25T13:40:04.019Z,5.20
2018-05-25T13:42:04.966Z,5.13
2018-05-25T13:44:05.923Z,4.10
2018-05-25T13:46:06.872Z,4.00
2018-05-25T13:48:08.298Z,4.07
2018-05-25T13:50:09.251Z,4.50
2018-05-25T13:52:10.219Z,4.10
2018-05-25T13:54:11.179Z,4.70
2018-05-25T13:56:12.758Z,3.90
2018-05-25T13:58:13.735Z,4.27
2018-05-25T14:00:14.870Z,4.00
2018-05-25T14:02:16.229Z,3.83
2018-05-25T14:04:17.534Z,3.80
2018-05-25T14:06:18.501Z,3.70
2018-05-25T14:08:19.454Z,3.57
2018-05-25T14:10:20.406Z,3.53
2018-05-25T14:12:21.365Z,3.83
2018-05-25T14:14:22.316Z,4.70
2018-05-25T14:16:23.641Z,3.73
2018-05-25T14:18:24.623Z,4.37
2018-05-25T14:20:25.584Z,4.70
2018-05-25T14:22:26.539Z,6.47
2018-05-25T14:24:27.496Z,4.63
2018-05-25T14:26:28.844Z,4.10
2018-05-25T14:28:29.809Z,3.60
2018-05-25T14:30:30.763Z,3.50
2018-05-25T14:32:31.749Z,3.37
2018-05-25T14:34:33.091Z,3.80
2018-05-25T14:36:34.412Z,14.87
2018-05-25T14:38:35.458Z,5.30
2018-05-25T14:40:36.411Z,3.60
2018-05-25T14:42:37.748Z,3.90
2018-05-25T14:44:39.099Z,4.23
2018-05-25T14:46:40.046Z,4.77
2018-05-25T14:48:40.982Z,4.80
2018-05-25T14:50:41.926Z,4.10
2018-05-25T14:52:42.884Z,3.60
2018-05-25T14:54:43.837Z,3.50
2018-05-25T14:56:44.784Z,6.57
2018-05-25T14:58:46.105Z,4.73
2018-05-25T15:00:47.539Z,5.37
2018-05-25T15:02:48.494Z,3.30
2018-05-25T15:04:49.437Z,3.67
2018-05-25T15:06:50.389Z,3.70
2018-05-25T15:08:58.772Z,3.80
2018-05-25T15:10:59.718Z,4.40
2018-05-25T15:13:01.037Z,4.00
2018-05-25T15:15:02.020Z,3.80
2018-05-25T15:17:02.977Z,4.00
2018-05-25T15:19:04.394Z,3.93
2018-05-25T15:21:05.363Z,3.80
2018-05-25T15:23:07.056Z,3.70
2018-05-25T15:25:08.014Z,3.50
2018-05-25T15:27:08.958Z,3.80
2018-05-25T15:29:09.907Z,3.93
2018-05-25T15:31:10.875Z,3.37
2018-05-25T15:33:11.818Z,3.70
2018-05-25T15:35:13.155Z,3.70
2018-05-25T15:37:14.150Z,3.50
2018-05-25T15:39:15.102Z,3.40
2018-05-25T15:41:16.058Z,3.70
2018-05-25T15:43:17.001Z,3.60
2018-05-25T15:45:17.958Z,3.10
2018-05-25T15:47:19.323Z,3.77
2018-05-25T15:49:20.267Z,3.73
2018-05-25T15:51:21.207Z,3.30
2018-05-25T15:53:22.741Z,3.30
2018-05-25T15:55:23.693Z,3.23
2018-05-25T15:57:25.010Z,3.07
2018-05-25T15:59:25.994Z,3.13
2018-05-25T16:01:27.168Z,3.43
2018-05-25T16:03:28.497Z,3.30
2018-05-25T16:05:29.826Z,3.40
2018-05-25T16:07:30.810Z,2.97
2018-05-25T16:09:31.791Z,3.70
2018-05-25T16:11:32.795Z,2.80
2018-05-25T16:13:33.797Z,2.57
2018-05-25T16:15:35.185Z,4.20
2018-05-25T16:17:36.150Z,3.57
2018-05-25T16:19:38.270Z,5.83
2018-05-25T16:21:39.259Z,2.90
2018-05-25T16:23:40.246Z,3.30
2018-05-25T16:25:41.246Z,2.60
2018-05-25T16:27:42.246Z,2.87
2018-05-25T16:29:43.274Z,2.90
2018-05-25T16:31:44.301Z,3.57
2018-05-25T16:33:52.414Z,3.30
2018-05-25T16:35:53.398Z,4.77
2018-05-25T16:37:54.403Z,2.50
2018-05-25T16:39:56.456Z,2.93
2018-05-25T16:41:57.470Z,2.50
2018-05-25T16:43:58.465Z,2.87
2018-05-25T16:45:59.435Z,2.60
2018-05-25T16:48:01.048Z,2.63
2018-05-25T16:50:02.088Z,2.87
2018-05-25T16:52:03.414Z,3.77
2018-05-25T16:54:04.434Z,4.63
2018-05-25T16:56:05.778Z,4.03
2018-05-25T16:58:07.188Z,3.07
2018-05-25T17:00:08.182Z,3.27
2018-05-25T17:02:09.157Z,2.90
2018-05-25T17:04:10.163Z,2.60
2018-05-25T17:06:11.298Z,2.57
2018-05-25T17:08:12.279Z,3.40
2018-05-25T17:10:13.278Z,2.93
2018-05-25T17:12:14.441Z,2.70
2018-05-25T17:14:15.416Z,2.60
2018-05-25T17:16:16.764Z,2.60
2018-05-25T17:18:18.285Z,2.60
2018-05-25T17:20:19.246Z,2.80
2018-05-25T17:22:20.587Z,3.40
2018-05-25T17:24:22.094Z,3.10
2018-05-25T17:26:23.091Z,3.37
2018-05-25T17:28:24.082Z,3.70
2018-05-25T17:30:25.412Z,7.97
2018-05-25T17:32:26.404Z,4.80
2018-05-25T17:34:27.390Z,3.30
2018-05-25T17:36:28.935Z,3.30
2018-05-25T17:38:30.104Z,3.10
2018-05-25T17:40:31.467Z,3.10
2018-05-25T17:42:32.610Z,2.90
2018-05-25T17:44:33.618Z,5.00
2018-05-25T17:46:35.007Z,4.43
2018-05-25T17:48:36.126Z,5.20
2018-05-25T17:50:37.143Z,4.03
2018-05-25T17:52:38.494Z,3.40
2018-05-25T17:54:39.510Z,3.03
2018-05-25T17:56:40.874Z,3.20
2018-05-25T17:58:42.620Z,3.63
2018-05-25T18:00:43.962Z,3.03
2018-05-25T18:02:45.299Z,3.40
2018-05-25T18:04:46.666Z,3.73
2018-05-25T18:06:54.758Z,3.50
2018-05-25T18:08:55.751Z,4.30
2018-05-25T18:10:56.719Z,3.13
2018-05-25T18:12:58.213Z,3.90
2018-05-25T18:14:59.468Z,3.30
2018-05-25T18:17:00.486Z,3.50
2018-05-25T18:19:01.430Z,5.30
2018-05-25T18:21:02.468Z,4.00
2018-05-25T18:25:11.297Z,3.50
2018-05-25T18:27:12.291Z,3.60
2018-05-25T18:29:13.266Z,4.70
2018-05-25T18:31:14.254Z,4.80
2018-05-25T18:33:15.452Z,4.13
2018-05-25T18:35:16.477Z,4.13
2018-05-25T18:37:17.536Z,3.00
2018-05-25T18:39:18.550Z,3.37
2018-05-25T18:41:19.592Z,3.40
2018-05-25T18:43:20.570Z,3.67
2018-05-25T18:45:21.908Z,3.60
2018-05-25T18:47:23.638Z,3.30
2018-05-25T18:49:24.638Z,4.00
2018-05-25T18:51:25.614Z,3.60
2018-05-25T18:53:26.587Z,3.10
2018-05-25T18:55:27.562Z,12.40
2018-05-25T18:57:28.538Z,5.20
2018-05-25T18:59:29.538Z,4.80
2018-05-25T19:01:30.552Z,3.50
2018-05-25T19:03:31.925Z,3.20
2018-05-25T19:05:32.915Z,3.20
2018-05-25T19:07:33.885Z,3.53
2018-05-25T19:09:34.902Z,3.33
2018-05-25T19:11:35.889Z,3.70
2018-05-25T19:13:37.232Z,3.10
2018-05-25T19:15:38.624Z,3.30
2018-05-25T19:17:39.622Z,3.23
2018-05-25T19:19:40.599Z,3.30
2018-05-25T19:21:41.591Z,3.50
2018-05-25T19:23:42.580Z,3.40
2018-05-25T19:25:43.534Z,3.70
2018-05-25T19:27:44.694Z,3.03
2018-05-25T19:29:46.070Z,4.40
2018-05-25T19:31:47.034Z,3.70
2018-05-25T19:33:48.028Z,3.70
2018-05-25T19:35:49.031Z,3.57
2018-05-25T19:37:50.410Z,4.23
2018-05-25T19:39:51.415Z,3.50
2018-05-25T19:41:52.793Z,3.53
2018-05-25T19:43:53.802Z,3.37
2018-05-25T19:45:54.765Z,3.83
2018-05-25T19:47:55.755Z,3.87
2018-05-25T19:49:57.193Z,4.10
2018-05-25T19:51:58.170Z,4.10
2018-05-25T19:53:59.142Z,3.87
2018-05-25T19:56:00.163Z,3.50
2018-05-25T19:58:01.148Z,3.40
2018-05-25T20:00:02.672Z,3.23
2018-05-25T20:02:04.037Z,3.20
2018-05-25T20:04:05.401Z,3.50
2018-05-25T20:06:13.234Z,3.30
2018-05-25T20:08:14.237Z,4.70
2018-05-25T20:10:15.215Z,3.83
2018-05-25T20:12:16.222Z,5.80
2018-05-25T20:14:17.223Z,3.43
2018-05-25T20:16:25.144Z,3.30
2018-05-25T20:18:26.245Z,3.33
2018-05-25T20:20:27.602Z,4.00
2018-05-25T20:22:28.606Z,6.30
2018-05-25T20:24:29.618Z,5.27
2018-05-25T20:26:30.600Z,4.20
2018-05-25T20:28:32.034Z,3.60
2018-05-25T20:30:33.374Z,3.90
2018-05-25T20:32:34.346Z,3.10
2018-05-25T20:34:35.318Z,3.50
2018-05-25T20:36:36.306Z,3.83
2018-05-25T20:38:37.266Z,3.70
2018-05-25T20:40:38.274Z,3.73
2018-05-25T20:42:39.611Z,4.27
2018-05-25T20:44:40.982Z,6.50
2018-05-25T20:46:41.973Z,5.43
2018-05-25T20:48:42.944Z,14.10
2018-05-25T20:50:43.951Z,4.60
2018-05-25T20:52:45.301Z,4.40
2018-05-25T20:54:46.655Z,4.90
2018-05-25T20:56:47.651Z,3.90
2018-05-25T20:58:48.642Z,3.70
2018-05-25T21:00:49.659Z,3.83
2018-05-25T21:02:50.643Z,3.53
2018-05-25T21:04:51.622Z,4.57
2018-05-25T21:06:52.966Z,3.27
2018-05-25T21:08:54.322Z,3.67
2018-05-25T21:10:55.359Z,3.43
2018-05-25T21:12:56.339Z,4.23
2018-05-25T21:14:57.454Z,9.70
2018-05-25T21:16:58.414Z,16.70
2018-05-25T21:18:59.422Z,5.40
2018-05-25T21:21:00.409Z,4.37
2018-05-25T21:23:01.779Z,7.80
2018-05-25T21:25:02.783Z,4.77
2018-05-25T21:27:04.159Z,4.33
2018-05-25T21:29:05.130Z,4.20
2018-05-25T21:31:06.089Z,4.07
2018-05-25T21:33:07.130Z,4.50
2018-05-25T21:35:08.114Z,4.17
2018-05-25T21:37:09.108Z,4.27
2018-05-25T21:39:10.569Z,4.60
2018-05-25T21:41:11.907Z,4.10
2018-05-25T21:43:13.371Z,4.77
2018-05-25T21:45:14.349Z,4.10
2018-05-25T21:47:16.230Z,4.47
2018-05-25T21:49:17.243Z,4.90
2018-05-25T21:51:18.235Z,4.87
2018-05-25T21:53:19.232Z,5.20
2018-05-25T21:55:20.243Z,4.53
2018-05-25T21:57:21.338Z,4.20
2018-05-25T21:59:22.310Z,4.83
2018-05-25T22:01:23.338Z,4.90
2018-05-25T22:03:24.328Z,5.37
2018-05-25T22:05:25.677Z,5.63
2018-05-25T22:07:26.679Z,5.87
2018-05-25T22:09:27.674Z,5.70
2018-05-25T22:11:28.658Z,4.90
2018-05-25T22:13:29.651Z,6.10
2018-05-25T22:15:30.641Z,6.27
2018-05-25T22:17:31.635Z,5.93
2018-05-25T22:19:32.598Z,6.00
2018-05-25T22:21:33.558Z,5.77
2018-05-25T22:23:34.522Z,6.20
2018-05-25T22:25:35.522Z,5.90
2018-05-25T22:27:37.250Z,6.33
2018-05-25T22:29:38.215Z,7.00
2018-05-25T22:31:39.190Z,8.90
2018-05-25T22:33:40.177Z,10.77
2018-05-25T22:35:41.522Z,16.80
2018-05-25T22:37:42.874Z,8.47
2018-05-25T22:39:43.871Z,8.00
2018-05-25T22:41:48.911Z,8.03
2018-05-25T22:44:02.171Z,7.90
2018-05-25T22:46:15.672Z,8.10
2018-05-25T22:48:29.414Z,8.90
2018-05-25T22:50:43.171Z,9.13
2018-05-25T22:52:50.302Z,8.90
2018-05-25T22:54:51.283Z,9.63
2018-05-25T22:56:52.245Z,9.00
2018-05-25T22:58:53.210Z,9.50
2018-05-25T23:00:54.215Z,9.50
2018-05-25T23:02:55.206Z,9.83
2018-05-25T23:04:56.182Z,11.30
2018-05-25T23:06:57.179Z,9.77
2018-05-25T23:08:58.179Z,10.50
2018-05-25T23:10:59.174Z,11.87
2018-05-25T23:13:00.527Z,11.90
2018-05-25T23:15:01.503Z,11.50
2018-05-25T23:17:02.850Z,11.10
2018-05-25T23:19:04.334Z,12.37
2018-05-25T23:21:05.322Z,12.03
2018-05-25T23:23:06.335Z,12.57
2018-05-25T23:25:07.489Z,12.50
2018-05-25T23:27:08.466Z,13.07
2018-05-25T23:29:09.441Z,13.30
2018-05-25T23:31:10.429Z,13.97
2018-05-25T23:33:11.407Z,13.40
2018-05-25T23:35:12.391Z,12.80
2018-05-25T23:37:13.755Z,13.70
2018-05-25T23:39:14.735Z,13.07
2018-05-25T23:41:15.710Z,14.17
2018-05-25T23:43:16.718Z,16.20
2018-05-25T23:45:17.678Z,14.40
2018-05-25T23:47:18.643Z,15.13
2018-05-25T23:49:19.614Z,15.43
2018-05-25T23:51:20.719Z,15.47
2018-05-25T23:53:21.730Z,17.83
2018-05-25T23:55:22.702Z,16.20
2018-05-25T23:57:23.695Z,18.20
2018-05-25T23:59:24.698Z,17.80
